createdAt,value
2023-03-29T00:01:55.664Z,87.80
2023-03-29T00:04:28.856Z,87.90
2023-03-29T00:06:58.158Z,87.60
2023-03-29T00:09:31.373Z,88.20
2023-03-29T00:12:01.654Z,85.20
2023-03-29T00:14:31.785Z,84.80
2023-03-29T00:17:01.187Z,83.50
2023-03-29T00:19:30.251Z,84.30
2023-03-29T00:21:59.246Z,83.50
2023-03-29T00:24:28.269Z,84.10
2023-03-29T00:26:57.353Z,85.30
2023-03-29T00:29:26.663Z,86.10
2023-03-29T00:31:57.139Z,87.00
2023-03-29T00:34:27.671Z,86.10
2023-03-29T00:36:59.097Z,84.90
2023-03-29T00:39:29.237Z,84.50
2023-03-29T00:41:58.345Z,85.40
2023-03-29T00:45:00.875Z,85.60
2023-03-29T00:47:38.188Z,86.60
2023-03-29T00:50:32.166Z,85.70
2023-03-29T00:53:16.218Z,85.80
2023-03-29T00:55:54.393Z,85.00
2023-03-29T00:58:51.173Z,85.20
2023-03-29T01:01:30.089Z,85.50
2023-03-29T01:04:25.246Z,84.80
2023-03-29T01:07:15.478Z,85.40
2023-03-29T01:09:47.292Z,85.30
2023-03-29T01:12:23.881Z,84.80
2023-03-29T01:14:57.747Z,84.30
2023-03-29T01:17:27.041Z,84.30
2023-03-29T01:20:09.104Z,85.00
2023-03-29T01:22:43.900Z,83.90
2023-03-29T01:25:17.426Z,83.60
2023-03-29T01:28:01.936Z,84.00
2023-03-29T01:30:49.053Z,83.50
2023-03-29T01:33:25.428Z,83.30
2023-03-29T01:36:20.438Z,82.80
2023-03-29T01:39:13.225Z,83.30
2023-03-29T01:41:51.362Z,82.20
2023-03-29T01:44:29.916Z,82.20
2023-03-29T01:47:34.341Z,81.60
2023-03-29T01:50:36.703Z,81.40
2023-03-29T01:53:25.417Z,81.60
2023-03-29T01:55:58.034Z,81.50
2023-03-29T01:58:34.858Z,80.60
2023-03-29T02:01:11.075Z,80.40
2023-03-29T02:03:44.016Z,80.40
2023-03-29T02:06:16.745Z,79.60
2023-03-29T02:08:47.870Z,79.60
2023-03-29T02:11:17.119Z,79.30
2023-03-29T02:13:46.114Z,79.00
2023-03-29T02:16:16.072Z,78.90
2023-03-29T02:18:47.936Z,78.80
2023-03-29T02:21:53.038Z,78.70
2023-03-29T02:24:25.175Z,78.70
2023-03-29T02:26:54.318Z,78.30
2023-03-29T02:29:23.387Z,78.10
2023-03-29T02:31:56.882Z,77.70
2023-03-29T02:34:34.889Z,77.40
2023-03-29T02:37:16.949Z,77.30
2023-03-29T02:39:48.852Z,77.00
2023-03-29T02:42:21.540Z,76.80
2023-03-29T02:44:57.073Z,76.70
2023-03-29T02:47:40.244Z,76.60
2023-03-29T02:50:11.090Z,76.50
2023-03-29T02:52:56.115Z,76.50
2023-03-29T02:55:32.006Z,76.60
2023-03-29T02:58:05.118Z,77.40
2023-03-29T03:00:35.541Z,78.10
2023-03-29T03:03:15.723Z,78.30
2023-03-29T03:05:45.430Z,78.90
2023-03-29T03:08:15.233Z,79.20
2023-03-29T03:10:44.344Z,79.60
2023-03-29T03:13:13.869Z,80.60
2023-03-29T03:15:44.045Z,79.70
2023-03-29T03:18:13.882Z,80.10
2023-03-29T03:20:43.230Z,80.60
2023-03-29T03:23:12.285Z,81.10
2023-03-29T03:25:43.279Z,81.00
2023-03-29T03:28:12.831Z,80.70
2023-03-29T03:30:42.033Z,80.40
2023-03-29T03:33:10.997Z,79.80
2023-03-29T03:35:40.376Z,78.30
2023-03-29T03:38:09.959Z,77.90
2023-03-29T03:40:39.590Z,78.40
2023-03-29T03:43:11.628Z,77.40
2023-03-29T03:45:41.126Z,77.40
2023-03-29T03:48:10.972Z,77.30
2023-03-29T03:50:40.311Z,77.40
2023-03-29T03:53:09.573Z,77.80
2023-03-29T03:55:38.606Z,77.30
2023-03-29T03:58:08.390Z,77.60
2023-03-29T04:00:37.462Z,77.70
2023-03-29T04:03:07.302Z,76.90
2023-03-29T04:05:41.503Z,76.90
2023-03-29T04:08:10.791Z,76.60
2023-03-29T04:10:40.635Z,76.40
2023-03-29T04:13:09.735Z,76.30
2023-03-29T04:15:39.720Z,76.60
2023-03-29T04:18:08.955Z,76.50
2023-03-29T04:20:39.968Z,76.50
2023-03-29T04:23:09.025Z,76.40
2023-03-29T04:25:38.101Z,76.60
2023-03-29T04:28:07.336Z,76.40
2023-03-29T04:30:36.535Z,76.40
2023-03-29T04:33:05.767Z,76.50
2023-03-29T04:35:35.089Z,76.70
2023-03-29T04:38:11.336Z,76.40
2023-03-29T04:40:40.398Z,77.00
2023-03-29T04:43:09.551Z,76.90
2023-03-29T04:45:38.612Z,76.70
2023-03-29T04:48:07.803Z,76.60
2023-03-29T04:50:37.778Z,76.00
2023-03-29T04:53:07.289Z,75.30
2023-03-29T04:55:36.506Z,74.90
2023-03-29T04:58:06.081Z,74.40
2023-03-29T05:00:36.286Z,73.70
2023-03-29T05:03:05.674Z,71.30
2023-03-29T05:05:34.799Z,70.70
2023-03-29T05:08:04.548Z,70.50
2023-03-29T05:10:33.598Z,69.70
2023-03-29T05:13:02.655Z,70.00
2023-03-29T05:15:32.702Z,70.10
2023-03-29T05:18:02.074Z,68.80
2023-03-29T05:20:31.150Z,68.60
2023-03-29T05:23:00.993Z,69.10
2023-03-29T05:25:30.344Z,69.20
2023-03-29T05:28:00.005Z,69.50
2023-03-29T05:30:29.274Z,70.40
2023-03-29T05:32:58.262Z,68.40
2023-03-29T05:35:27.515Z,70.20
2023-03-29T05:37:57.505Z,70.40
2023-03-29T05:40:27.428Z,70.20
2023-03-29T05:42:56.415Z,69.60
2023-03-29T05:45:25.887Z,69.50
2023-03-29T05:47:54.967Z,69.60
2023-03-29T05:50:24.617Z,69.90
2023-03-29T05:52:53.737Z,69.80
2023-03-29T05:55:22.752Z,69.50
2023-03-29T05:57:51.971Z,69.70
2023-03-29T06:00:24.853Z,68.70
2023-03-29T06:02:56.363Z,69.60
2023-03-29T06:05:28.811Z,68.60
2023-03-29T06:07:58.283Z,68.30
2023-03-29T06:10:27.272Z,67.30
2023-03-29T06:12:56.743Z,67.80
2023-03-29T06:15:26.507Z,68.20
2023-03-29T06:17:55.566Z,68.80
2023-03-29T06:20:24.567Z,69.20
2023-03-29T06:22:53.828Z,69.10
2023-03-29T06:25:22.802Z,68.90
2023-03-29T06:27:53.274Z,68.90
2023-03-29T06:30:22.541Z,69.00
2023-03-29T06:32:51.532Z,69.00
2023-03-29T06:35:20.629Z,68.40
2023-03-29T06:37:54.904Z,68.90
2023-03-29T06:40:24.090Z,68.80
2023-03-29T06:42:58.938Z,68.90
2023-03-29T06:45:30.119Z,69.10
2023-03-29T06:47:59.522Z,69.00
2023-03-29T06:50:28.541Z,69.00
2023-03-29T06:52:57.912Z,69.40
2023-03-29T06:55:28.369Z,69.30
2023-03-29T06:57:57.858Z,69.30
2023-03-29T07:00:31.105Z,69.60
2023-03-29T07:03:02.700Z,69.40
2023-03-29T07:05:32.883Z,69.40
2023-03-29T07:08:12.137Z,69.30
2023-03-29T07:10:46.941Z,69.50
2023-03-29T07:13:16.707Z,69.50
2023-03-29T07:15:46.422Z,69.30
2023-03-29T07:18:15.592Z,69.60
2023-03-29T07:20:44.644Z,69.60
2023-03-29T07:23:13.712Z,69.70
2023-03-29T07:25:42.745Z,69.70
2023-03-29T07:28:12.403Z,69.90
2023-03-29T07:30:41.467Z,70.00
2023-03-29T07:33:10.725Z,70.00
2023-03-29T07:35:40.934Z,70.20
2023-03-29T07:38:09.942Z,70.50
2023-03-29T07:40:39.202Z,70.70
2023-03-29T07:43:10.193Z,70.90
2023-03-29T07:45:41.869Z,71.00
2023-03-29T07:48:11.069Z,70.80
2023-03-29T07:50:40.238Z,71.20
2023-03-29T07:53:10.292Z,71.40
2023-03-29T07:55:47.932Z,71.40
2023-03-29T07:58:17.541Z,71.40
2023-03-29T08:00:49.529Z,71.50
2023-03-29T08:03:21.495Z,71.40
2023-03-29T08:05:50.773Z,71.30
2023-03-29T08:08:19.789Z,71.60
2023-03-29T08:10:48.787Z,71.80
2023-03-29T08:13:18.031Z,71.40
2023-03-29T08:15:48.549Z,71.20
2023-03-29T08:18:18.759Z,71.00
2023-03-29T08:20:47.711Z,70.80
2023-03-29T08:23:17.035Z,70.70
2023-03-29T08:25:48.428Z,70.30
2023-03-29T08:28:17.428Z,70.20
2023-03-29T08:30:46.929Z,69.70
2023-03-29T08:33:16.042Z,69.70
2023-03-29T08:35:48.697Z,69.60
2023-03-29T08:38:17.746Z,69.70
2023-03-29T08:40:50.831Z,69.60
2023-03-29T08:44:01.173Z,69.10
2023-03-29T08:46:57.039Z,68.90
2023-03-29T08:49:32.375Z,68.70
2023-03-29T08:52:08.222Z,68.60
2023-03-29T08:54:50.421Z,68.80
2023-03-29T08:57:26.779Z,68.90
2023-03-29T08:59:58.335Z,69.00
2023-03-29T09:02:32.406Z,68.60
2023-03-29T09:05:25.828Z,68.70
2023-03-29T09:07:56.951Z,68.50
2023-03-29T09:10:37.472Z,68.70
2023-03-29T09:13:13.390Z,68.80
2023-03-29T09:16:02.368Z,68.80
2023-03-29T09:19:09.244Z,68.90
2023-03-29T09:21:47.890Z,69.00
2023-03-29T09:24:26.483Z,68.90
2023-03-29T09:27:07.224Z,69.00
2023-03-29T09:29:51.557Z,69.00
2023-03-29T09:32:30.800Z,68.50
2023-03-29T09:35:25.241Z,67.80
2023-03-29T09:37:56.324Z,67.90
2023-03-29T09:40:28.553Z,68.30
2023-03-29T09:42:59.411Z,68.40
2023-03-29T09:45:29.198Z,68.40
2023-03-29T09:48:11.171Z,68.50
2023-03-29T09:50:43.737Z,68.40
2023-03-29T09:53:13.039Z,68.30
2023-03-29T09:55:42.445Z,68.30
2023-03-29T09:58:29.211Z,68.40
2023-03-29T10:01:04.243Z,68.50
2023-03-29T10:03:36.136Z,68.50
2023-03-29T10:06:08.590Z,68.50
2023-03-29T10:08:43.639Z,68.60
2023-03-29T10:11:48.814Z,68.50
2023-03-29T10:14:42.516Z,68.70
2023-03-29T10:17:33.936Z,68.80
2023-03-29T10:20:14.574Z,68.80
2023-03-29T10:22:55.929Z,69.10
2023-03-29T10:25:32.532Z,69.00
2023-03-29T10:28:13.036Z,69.10
2023-03-29T10:30:42.256Z,69.20
2023-03-29T10:33:21.427Z,69.10
2023-03-29T10:35:50.885Z,69.20
2023-03-29T10:38:23.672Z,69.10
2023-03-29T10:40:57.830Z,69.10
2023-03-29T10:43:44.160Z,69.30
2023-03-29T10:46:23.608Z,69.50
2023-03-29T10:49:11.271Z,69.30
2023-03-29T10:51:45.310Z,70.10
2023-03-29T10:54:18.653Z,70.30
2023-03-29T10:56:58.475Z,70.10
2023-03-29T10:59:45.644Z,70.40
2023-03-29T11:02:20.597Z,71.10
2023-03-29T11:05:04.136Z,70.60
2023-03-29T11:08:05.170Z,71.00
2023-03-29T11:11:07.938Z,71.60
2023-03-29T11:13:42.377Z,74.00
2023-03-29T11:16:32.987Z,72.80
2023-03-29T11:19:50.916Z,73.50
2023-03-29T11:22:22.789Z,73.00
2023-03-29T11:24:51.810Z,72.30
2023-03-29T11:27:42.644Z,72.50
2023-03-29T11:30:32.996Z,72.90
2023-03-29T11:33:08.247Z,72.40
2023-03-29T11:35:49.880Z,72.90
2023-03-29T11:38:29.165Z,73.70
2023-03-29T11:41:07.163Z,73.20
2023-03-29T11:44:12.640Z,73.90
2023-03-29T11:46:48.065Z,74.90
2023-03-29T11:49:24.472Z,73.70
2023-03-29T11:52:18.800Z,73.40
2023-03-29T11:54:54.594Z,74.30
2023-03-29T11:57:37.097Z,74.30
2023-03-29T12:00:32.478Z,74.90
2023-03-29T12:03:18.777Z,75.90
2023-03-29T12:05:54.980Z,75.80
2023-03-29T12:08:29.755Z,75.80
2023-03-29T12:11:10.468Z,75.10
2023-03-29T12:13:48.554Z,75.20
2023-03-29T12:16:27.739Z,75.00
2023-03-29T12:18:59.552Z,74.80
2023-03-29T12:21:32.208Z,76.60
2023-03-29T12:24:01.628Z,76.80
2023-03-29T12:26:55.019Z,76.40
2023-03-29T12:29:45.374Z,75.10
2023-03-29T12:32:26.597Z,77.10
2023-03-29T12:35:01.971Z,78.00
2023-03-29T12:37:49.558Z,78.00
2023-03-29T12:40:23.074Z,78.30
2023-03-29T12:42:59.593Z,76.70
2023-03-29T12:45:39.735Z,77.70
2023-03-29T12:48:16.344Z,77.80
2023-03-29T12:50:55.046Z,76.30
2023-03-29T12:53:34.315Z,76.30
2023-03-29T12:56:09.862Z,76.40
2023-03-29T12:58:42.707Z,77.00
2023-03-29T13:01:28.601Z,77.00
2023-03-29T13:04:05.315Z,76.90
2023-03-29T13:07:04.245Z,76.70
2023-03-29T13:09:55.041Z,77.80
2023-03-29T13:12:30.794Z,78.60
2023-03-29T13:15:25.178Z,77.90
2023-03-29T13:18:27.643Z,80.10
2023-03-29T13:21:05.391Z,79.40
2023-03-29T13:23:37.611Z,79.10
2023-03-29T13:26:09.622Z,78.00
2023-03-29T13:29:12.704Z,78.00
2023-03-29T13:32:00.321Z,79.30
2023-03-29T13:34:42.447Z,78.40
2023-03-29T13:37:39.915Z,77.80
2023-03-29T13:40:27.838Z,77.90
2023-03-29T13:43:11.827Z,78.60
2023-03-29T13:45:41.743Z,78.20
2023-03-29T13:48:30.708Z,78.10
2023-03-29T13:51:09.334Z,78.90
2023-03-29T13:53:48.085Z,77.70
2023-03-29T13:56:26.758Z,77.60
2023-03-29T13:59:14.898Z,77.40
2023-03-29T14:01:50.442Z,78.40
2023-03-29T14:04:25.956Z,78.20
2023-03-29T14:06:57.723Z,78.50
2023-03-29T14:09:33.410Z,78.80
2023-03-29T14:12:03.211Z,79.60
2023-03-29T14:14:35.176Z,79.20
2023-03-29T14:17:05.229Z,79.10
2023-03-29T14:19:39.612Z,78.80
2023-03-29T14:22:21.197Z,79.10
2023-03-29T14:24:55.185Z,79.40
2023-03-29T14:27:24.083Z,78.70
2023-03-29T14:29:54.432Z,81.30
2023-03-29T14:32:31.616Z,79.80
2023-03-29T14:35:03.008Z,79.80
2023-03-29T14:37:32.226Z,79.20
2023-03-29T14:40:02.658Z,78.90
2023-03-29T14:42:31.807Z,78.70
2023-03-29T14:45:06.053Z,78.90
2023-03-29T14:47:36.140Z,78.90
2023-03-29T14:50:06.111Z,79.10
2023-03-29T14:52:36.100Z,78.80
2023-03-29T14:55:05.638Z,78.90
2023-03-29T14:57:39.252Z,78.90
2023-03-29T15:00:27.172Z,78.80
2023-03-29T15:02:58.813Z,79.40
2023-03-29T15:05:35.039Z,79.10
2023-03-29T15:08:05.586Z,79.10
2023-03-29T15:10:38.035Z,79.10
2023-03-29T15:13:09.051Z,79.10
2023-03-29T15:15:41.405Z,79.20
2023-03-29T15:18:16.022Z,79.20
2023-03-29T15:20:46.250Z,79.40
2023-03-29T15:23:18.024Z,79.30
2023-03-29T15:25:59.923Z,79.50
2023-03-29T15:28:37.015Z,79.70
2023-03-29T15:31:20.931Z,79.80
2023-03-29T15:33:50.051Z,80.20
2023-03-29T15:36:19.132Z,79.90
2023-03-29T15:38:51.808Z,79.80
2023-03-29T15:41:20.854Z,79.70
2023-03-29T15:43:49.926Z,79.80
2023-03-29T15:46:18.964Z,80.00
2023-03-29T15:48:48.028Z,80.00
2023-03-29T15:51:17.234Z,80.20
2023-03-29T15:53:46.455Z,80.20
2023-03-29T15:56:19.912Z,80.20
2023-03-29T15:58:49.402Z,80.10
2023-03-29T16:01:41.710Z,80.40
2023-03-29T16:04:19.719Z,80.60
2023-03-29T16:06:54.179Z,80.30
2023-03-29T16:09:24.308Z,80.30
2023-03-29T16:11:53.581Z,80.30
2023-03-29T16:14:31.033Z,80.30
2023-03-29T16:17:01.973Z,80.30
2023-03-29T16:19:32.551Z,80.30
2023-03-29T16:22:04.292Z,80.90
2023-03-29T16:24:35.248Z,80.50
2023-03-29T16:27:05.091Z,80.30
2023-03-29T16:29:34.229Z,80.30
2023-03-29T16:32:05.495Z,80.00
2023-03-29T16:34:37.070Z,80.30
2023-03-29T16:37:06.307Z,80.20
2023-03-29T16:39:35.631Z,81.00
2023-03-29T16:42:05.116Z,81.30
2023-03-29T16:44:34.070Z,80.50
2023-03-29T16:47:03.137Z,81.50
2023-03-29T16:49:32.373Z,80.60
2023-03-29T16:52:01.382Z,80.60
2023-03-29T16:54:32.909Z,80.30
2023-03-29T16:57:01.953Z,80.20
2023-03-29T16:59:30.925Z,80.50
2023-03-29T17:01:59.998Z,80.60
2023-03-29T17:04:29.075Z,80.90
2023-03-29T17:06:58.314Z,81.00
2023-03-29T17:09:29.308Z,81.70
2023-03-29T17:11:59.110Z,81.50
2023-03-29T17:14:28.215Z,81.30
2023-03-29T17:16:57.220Z,81.10
2023-03-29T17:19:26.306Z,81.20
2023-03-29T17:21:55.288Z,81.20
2023-03-29T17:24:24.291Z,81.20
2023-03-29T17:26:53.316Z,81.30
2023-03-29T17:29:22.279Z,81.30
2023-03-29T17:31:51.451Z,81.60
2023-03-29T17:34:21.217Z,81.90
2023-03-29T17:36:50.222Z,81.70
2023-03-29T17:39:19.852Z,81.70
2023-03-29T17:41:49.617Z,81.60
2023-03-29T17:44:18.691Z,81.70
2023-03-29T17:46:48.043Z,82.00
2023-03-29T17:49:17.352Z,82.20
2023-03-29T17:51:46.545Z,82.40
2023-03-29T17:54:15.546Z,82.20
2023-03-29T17:56:44.565Z,82.30
2023-03-29T17:59:13.576Z,82.40
2023-03-29T18:01:42.993Z,82.40
2023-03-29T18:04:12.593Z,82.60
2023-03-29T18:06:41.706Z,82.60
2023-03-29T18:09:11.331Z,82.60
2023-03-29T18:11:40.606Z,82.90
2023-03-29T18:14:09.584Z,82.90
2023-03-29T18:16:38.609Z,83.30
2023-03-29T18:19:07.653Z,84.30
2023-03-29T18:21:36.691Z,83.40
2023-03-29T18:24:05.817Z,83.40
2023-03-29T18:26:34.935Z,83.50
2023-03-29T18:29:03.942Z,83.40
2023-03-29T18:31:32.918Z,83.50
2023-03-29T18:34:02.048Z,83.70
2023-03-29T18:36:31.608Z,83.50
2023-03-29T18:39:06.636Z,83.60
2023-03-29T18:41:38.380Z,83.70
2023-03-29T18:44:08.751Z,83.70
2023-03-29T18:46:37.808Z,83.80
2023-03-29T18:49:08.899Z,84.10
2023-03-29T18:51:37.954Z,84.20
2023-03-29T18:54:07.279Z,84.20
2023-03-29T18:56:36.943Z,84.40
2023-03-29T18:59:07.440Z,84.40
2023-03-29T19:01:36.584Z,84.30
2023-03-29T19:04:06.062Z,84.50
2023-03-29T19:06:35.101Z,84.60
2023-03-29T19:09:06.378Z,84.60
2023-03-29T19:11:37.210Z,84.80
2023-03-29T19:14:10.112Z,84.80
2023-03-29T19:16:40.840Z,84.80
2023-03-29T19:19:11.969Z,84.90
2023-03-29T19:21:40.979Z,85.60
2023-03-29T19:24:10.314Z,85.20
2023-03-29T19:26:39.373Z,85.10
2023-03-29T19:29:08.486Z,85.20
2023-03-29T19:31:39.109Z,85.30
2023-03-29T19:34:10.837Z,85.20
2023-03-29T19:36:40.097Z,85.30
2023-03-29T19:39:09.068Z,85.20
2023-03-29T19:41:38.995Z,85.10
2023-03-29T19:44:09.834Z,85.10
2023-03-29T19:46:38.931Z,85.20
2023-03-29T19:49:09.666Z,85.20
2023-03-29T19:51:38.638Z,85.20
2023-03-29T19:54:08.254Z,85.20
2023-03-29T19:56:37.316Z,85.30
2023-03-29T19:59:06.622Z,85.30
2023-03-29T20:01:35.814Z,85.40
2023-03-29T20:04:04.907Z,85.30
2023-03-29T20:06:33.965Z,85.00
2023-03-29T20:09:03.262Z,85.20
2023-03-29T20:11:32.377Z,85.30
2023-03-29T20:14:01.560Z,85.20
2023-03-29T20:16:34.247Z,85.20
2023-03-29T20:19:03.985Z,85.20
2023-03-29T20:21:34.825Z,85.20
2023-03-29T20:24:03.823Z,85.00
2023-03-29T20:26:32.897Z,85.20
2023-03-29T20:29:01.952Z,84.80
2023-03-29T20:31:31.236Z,85.30
2023-03-29T20:34:00.274Z,85.40
2023-03-29T20:36:31.876Z,85.60
2023-03-29T20:39:01.432Z,85.50
2023-03-29T20:41:30.530Z,85.40
2023-03-29T20:44:00.020Z,85.60
2023-03-29T20:46:39.510Z,85.50
2023-03-29T20:49:10.105Z,85.60
2023-03-29T20:51:39.795Z,86.00
2023-03-29T20:54:11.171Z,85.80
2023-03-29T20:56:43.276Z,85.60
2023-03-29T20:59:12.318Z,85.60
2023-03-29T21:01:41.857Z,85.80
2023-03-29T21:04:11.942Z,86.00
2023-03-29T21:06:40.941Z,86.00
2023-03-29T21:09:09.969Z,85.90
2023-03-29T21:11:39.610Z,86.10
2023-03-29T21:14:08.581Z,86.10
2023-03-29T21:16:38.035Z,86.50
2023-03-29T21:19:07.010Z,87.40
2023-03-29T21:21:37.056Z,86.90
2023-03-29T21:24:06.286Z,86.60
2023-03-29T21:26:35.867Z,86.60
2023-03-29T21:29:04.992Z,86.50
2023-03-29T21:31:34.129Z,86.80
2023-03-29T21:34:03.100Z,86.60
2023-03-29T21:36:32.451Z,86.80
2023-03-29T21:39:01.631Z,86.80
2023-03-29T21:41:30.639Z,87.10
2023-03-29T21:43:59.616Z,86.80
2023-03-29T21:46:28.717Z,86.80
2023-03-29T21:48:57.874Z,87.30
2023-03-29T21:51:26.859Z,87.20
2023-03-29T21:53:55.872Z,87.30
2023-03-29T21:56:24.862Z,87.20
2023-03-29T21:58:53.826Z,88.30
2023-03-29T22:01:22.952Z,88.10
2023-03-29T22:03:52.152Z,88.10
2023-03-29T22:06:22.528Z,88.60
2023-03-29T22:08:54.269Z,88.50
2023-03-29T22:11:24.451Z,88.40
2023-03-29T22:13:54.100Z,88.30
2023-03-29T22:16:26.814Z,88.40
2023-03-29T22:18:55.939Z,88.30
2023-03-29T22:21:27.656Z,88.50
2023-03-29T22:23:58.896Z,88.90
2023-03-29T22:26:30.932Z,88.60
2023-03-29T22:29:01.470Z,88.70
2023-03-29T22:31:31.706Z,88.60
2023-03-29T22:34:01.869Z,88.30
2023-03-29T22:36:33.026Z,88.50
2023-03-29T22:39:02.059Z,88.80
2023-03-29T22:41:31.145Z,88.80
2023-03-29T22:44:02.287Z,90.10
2023-03-29T22:46:31.702Z,90.70
2023-03-29T22:49:00.802Z,90.30
2023-03-29T22:51:29.821Z,90.00
2023-03-29T22:53:58.836Z,89.50
2023-03-29T22:56:28.388Z,90.30
2023-03-29T22:58:57.375Z,90.20
2023-03-29T23:01:26.767Z,90.20
2023-03-29T23:03:55.881Z,89.90
2023-03-29T23:06:25.134Z,90.10
2023-03-29T23:08:54.151Z,89.60
2023-03-29T23:11:24.041Z,89.60
2023-03-29T23:13:53.693Z,89.20
2023-03-29T23:16:23.103Z,89.20
2023-03-29T23:18:52.348Z,89.20
2023-03-29T23:21:21.361Z,88.90
2023-03-29T23:23:50.671Z,89.40
2023-03-29T23:26:19.775Z,90.10
2023-03-29T23:28:48.829Z,89.60
2023-03-29T23:31:19.971Z,89.40
2023-03-29T23:33:49.130Z,89.00
2023-03-29T23:36:20.005Z,89.30
2023-03-29T23:38:49.977Z,89.30
2023-03-29T23:41:19.871Z,89.00
2023-03-29T23:43:51.331Z,88.30
2023-03-29T23:46:20.345Z,89.00
2023-03-29T23:48:51.372Z,89.20
2023-03-29T23:51:23.824Z,89.50
2023-03-29T23:53:53.017Z,89.20
2023-03-29T23:56:25.507Z,89.10
2023-03-29T23:58:54.953Z,89.20
